Time;durP1;ratioP1;P1;durP2;ratioP2;P2;SDS_P1;SDS_P2;PMS_P1;PMS_P2;Temp;Humidity;BMP_temperature;BMP_pressure;BME280_temperature;BME280_humidity;BME280_pressure;Samples;Min_cycle;Max_cycle;Signal;HPM_P1;HPM_P2
2023/10/22 00:02:14;;;;;;;2.10;1.93;;;;;;;;;;5126873;27;20307;-43
2023/10/22 00:04:41;;;;;;;2.27;2.10;;;;;;;;;;5121157;27;20289;-47
2023/10/22 00:07:08;;;;;;;4.77;2.27;;;;;;;;;;5126444;27;20200;-42
2023/10/22 00:09:37;;;;;;;2.57;1.60;;;;;;;;;;5129261;27;20223;-45
2023/10/22 00:12:04;;;;;;;1.97;1.87;;;;;;;;;;5117059;27;20203;-45
2023/10/22 00:14:31;;;;;;;1.93;1.83;;;;;;;;;;5129238;27;20310;-43
2023/10/22 00:16:58;;;;;;;1.60;1.50;;;;;;;;;;5132115;27;20573;-44
2023/10/22 00:19:25;;;;;;;2.37;1.40;;;;;;;;;;5116919;27;20224;-45
2023/10/22 00:21:52;;;;;;;1.63;1.53;;;;;;;;;;5129915;27;20211;-44
2023/10/22 00:24:20;;;;;;;1.60;1.50;;;;;;;;;;5132121;27;20198;-40
2023/10/22 00:26:48;;;;;;;1.70;1.60;;;;;;;;;;5118341;27;20213;-42
2023/10/22 00:29:15;;;;;;;3.90;1.83;;;;;;;;;;5131593;27;20229;-46
2023/10/22 00:31:42;;;;;;;1.53;1.43;;;;;;;;;;5129468;27;20222;-42
2023/10/22 00:34:09;;;;;;;1.10;1.10;;;;;;;;;;5123804;27;20223;-43
2023/10/22 00:36:36;;;;;;;2.63;1.30;;;;;;;;;;5126990;27;20203;-47
2023/10/22 00:39:04;;;;;;;2.37;1.60;;;;;;;;;;5128452;27;20219;-41
2023/10/22 00:41:31;;;;;;;1.33;1.23;;;;;;;;;;5116155;27;20210;-47
2023/10/22 00:43:59;;;;;;;2.77;1.50;;;;;;;;;;5125757;27;20203;-42
2023/10/22 00:46:27;;;;;;;4.33;2.40;;;;;;;;;;5132877;27;20202;-39
2023/10/22 00:48:55;;;;;;;1.57;1.43;;;;;;;;;;5128206;27;20227;-45
2023/10/22 00:51:22;;;;;;;2.20;1.53;;;;;;;;;;5123417;27;20206;-44
2023/10/22 00:53:50;;;;;;;1.57;1.47;;;;;;;;;;5129440;27;20251;-39
2023/10/22 00:56:20;;;;;;;2.87;1.50;;;;;;;;;;5123343;27;20319;-42
2023/10/22 00:58:48;;;;;;;1.60;1.50;;;;;;;;;;5132913;27;20242;-45
2023/10/22 01:01:17;;;;;;;1.33;1.23;;;;;;;;;;5122529;27;20576;-45
2023/10/22 01:03:44;;;;;;;1.17;1.07;;;;;;;;;;5125352;27;20203;-45
2023/10/22 01:06:11;;;;;;;1.40;1.30;;;;;;;;;;5127478;27;20207;-46
2023/10/22 01:08:39;;;;;;;3.93;1.73;;;;;;;;;;5121802;27;20223;-43
2023/10/22 01:11:06;;;;;;;5.33;2.13;;;;;;;;;;5116373;27;20207;-40
2023/10/22 01:13:33;;;;;;;3.57;1.43;;;;;;;;;;5122729;27;20206;-44
2023/10/22 01:16:01;;;;;;;1.10;1.10;;;;;;;;;;5129250;27;20206;-44
2023/10/22 01:18:29;;;;;;;1.37;1.33;;;;;;;;;;5133566;27;20206;-42
2023/10/22 01:20:57;;;;;;;1.20;1.10;;;;;;;;;;5129322;27;20203;-43
2023/10/22 01:23:25;;;;;;;1.53;1.30;;;;;;;;;;5128942;27;20695;-41
2023/10/22 01:25:52;;;;;;;1.43;1.20;;;;;;;;;;5122062;27;20215;-45
2023/10/22 01:28:19;;;;;;;1.20;1.10;;;;;;;;;;5127261;27;20540;-41
2023/10/22 01:30:47;;;;;;;0.90;0.90;;;;;;;;;;5128554;27;20223;-43
2023/10/22 01:33:14;;;;;;;2.03;1.30;;;;;;;;;;5125539;27;20210;-41
2023/10/22 01:35:41;;;;;;;1.23;1.20;;;;;;;;;;5118906;27;20226;-43
2023/10/22 01:38:08;;;;;;;1.50;1.40;;;;;;;;;;5129244;27;20294;-42
2023/10/22 01:40:37;;;;;;;1.37;1.27;;;;;;;;;;5122746;27;20294;-46
2023/10/22 01:43:04;;;;;;;1.10;1.10;;;;;;;;;;5127262;27;20196;-37
2023/10/22 01:45:31;;;;;;;1.40;1.40;;;;;;;;;;5136226;27;20203;-41
2023/10/22 01:47:58;;;;;;;2.20;1.20;;;;;;;;;;5131237;27;20270;-45
2023/10/22 01:50:26;;;;;;;1.10;1.10;;;;;;;;;;5122798;27;20219;-47
2023/10/22 01:52:53;;;;;;;1.43;1.33;;;;;;;;;;5136095;27;20222;-41
2023/10/22 01:55:20;;;;;;;1.57;1.47;;;;;;;;;;5120939;27;20223;-46
2023/10/22 01:57:49;;;;;;;1.27;1.17;;;;;;;;;;5130351;27;20553;-45
2023/10/22 02:00:17;;;;;;;1.67;1.40;;;;;;;;;;5131771;27;20226;-43
2023/10/22 02:02:44;;;;;;;1.43;1.30;;;;;;;;;;5131047;27;20203;-43
2023/10/22 02:05:11;;;;;;;1.47;1.37;;;;;;;;;;5126673;27;20214;-44
2023/10/22 02:07:39;;;;;;;1.90;1.40;;;;;;;;;;5127449;27;20226;-42
2023/10/22 02:10:08;;;;;;;1.40;1.30;;;;;;;;;;5128584;27;20228;-43
2023/10/22 02:12:35;;;;;;;4.70;1.50;;;;;;;;;;5128927;27;20200;-42
2023/10/22 02:15:04;;;;;;;1.40;1.30;;;;;;;;;;5137799;27;20218;-43
2023/10/22 02:17:31;;;;;;;1.50;1.40;;;;;;;;;;5131583;27;20202;-37
2023/10/22 02:19:58;;;;;;;1.50;1.40;;;;;;;;;;5135708;27;20227;-43
2023/10/22 02:22:26;;;;;;;1.20;1.20;;;;;;;;;;5130572;27;20286;-41
2023/10/22 02:24:53;;;;;;;1.40;1.30;;;;;;;;;;5128034;27;20213;-42
2023/10/22 02:27:20;;;;;;;1.70;1.30;;;;;;;;;;5128307;27;20203;-40
2023/10/22 02:29:47;;;;;;;2.30;1.47;;;;;;;;;;5130808;27;20231;-41
2023/10/22 02:32:15;;;;;;;1.57;1.30;;;;;;;;;;5133486;27;20213;-46
2023/10/22 02:34:43;;;;;;;1.27;1.17;;;;;;;;;;5123194;27;20255;-42
2023/10/22 02:37:10;;;;;;;1.27;1.20;;;;;;;;;;5133575;27;20203;-40
2023/10/22 02:39:37;;;;;;;2.30;1.47;;;;;;;;;;5141245;27;20238;-46
2023/10/22 02:42:05;;;;;;;1.47;1.37;;;;;;;;;;5131482;27;20202;-45
2023/10/22 02:44:32;;;;;;;1.50;1.40;;;;;;;;;;5130626;27;20286;-42
2023/10/22 02:47:00;;;;;;;1.40;1.30;;;;;;;;;;5130443;27;20211;-41
2023/10/22 02:49:28;;;;;;;1.30;1.30;;;;;;;;;;5120821;27;20574;-43
2023/10/22 02:51:56;;;;;;;1.60;1.50;;;;;;;;;;5129977;27;20206;-44
2023/10/22 02:54:23;;;;;;;1.70;1.60;;;;;;;;;;5130716;27;20248;-41
2023/10/22 02:56:50;;;;;;;1.30;1.30;;;;;;;;;;5125184;27;20206;-41
2023/10/22 02:59:17;;;;;;;3.00;1.70;;;;;;;;;;5132905;27;20226;-43
2023/10/22 03:01:44;;;;;;;1.50;1.40;;;;;;;;;;5136706;27;20199;-43
2023/10/22 03:04:11;;;;;;;1.80;1.47;;;;;;;;;;5125719;27;20484;-44
2023/10/22 03:06:40;;;;;;;1.27;1.17;;;;;;;;;;5136610;27;20210;-42
2023/10/22 03:09:07;;;;;;;1.93;1.47;;;;;;;;;;5130999;27;20230;-42
2023/10/22 03:11:34;;;;;;;1.27;1.17;;;;;;;;;;5118486;27;20203;-44
2023/10/22 03:14:01;;;;;;;1.50;1.40;;;;;;;;;;5130938;27;20539;-45
2023/10/22 03:16:28;;;;;;;1.67;1.10;;;;;;;;;;5131864;27;20634;-44
2023/10/22 03:18:55;;;;;;;1.10;1.00;;;;;;;;;;5127308;27;20312;-46
2023/10/22 03:21:24;;;;;;;1.40;1.30;;;;;;;;;;5128887;27;20636;-44
2023/10/22 03:23:52;;;;;;;1.53;1.27;;;;;;;;;;5130472;27;20260;-45
2023/10/22 03:26:19;;;;;;;1.20;1.13;;;;;;;;;;5125129;27;20231;-45
2023/10/22 03:28:47;;;;;;;3.50;1.37;;;;;;;;;;5127045;27;20307;-35
2023/10/22 03:31:15;;;;;;;1.63;1.33;;;;;;;;;;5128513;27;20314;-46
2023/10/22 03:33:42;;;;;;;2.67;1.80;;;;;;;;;;5124594;27;20221;-41
2023/10/22 03:36:11;;;;;;;2.20;1.50;;;;;;;;;;5126088;27;20215;-41
2023/10/22 03:38:39;;;;;;;1.47;1.37;;;;;;;;;;5129472;27;20246;-43
2023/10/22 03:41:07;;;;;;;1.73;1.37;;;;;;;;;;5114590;27;20207;-44
2023/10/22 03:43:35;;;;;;;1.30;1.30;;;;;;;;;;5129911;27;20199;-43
2023/10/22 03:46:02;;;;;;;1.33;1.23;;;;;;;;;;5129463;27;20574;-46
2023/10/22 03:48:30;;;;;;;1.23;1.20;;;;;;;;;;5123379;27;20311;-45
2023/10/22 03:50:57;;;;;;;1.40;1.33;;;;;;;;;;5120457;27;20204;-40
2023/10/22 03:53:24;;;;;;;3.20;1.50;;;;;;;;;;5129493;27;20216;-43
2023/10/22 03:55:52;;;;;;;1.37;1.33;;;;;;;;;;5120195;27;20235;-42
2023/10/22 03:58:20;;;;;;;1.00;1.00;;;;;;;;;;5129885;27;20298;-42
2023/10/22 04:00:49;;;;;;;1.13;1.07;;;;;;;;;;5130653;27;20199;-39
2023/10/22 04:03:16;;;;;;;0.90;0.90;;;;;;;;;;5130938;27;20235;-46
2023/10/22 04:05:43;;;;;;;1.03;1.00;;;;;;;;;;5126579;27;20207;-42
2023/10/22 04:08:10;;;;;;;1.37;1.27;;;;;;;;;;5126455;27;20204;-40
2023/10/22 04:10:37;;;;;;;1.20;1.10;;;;;;;;;;5120039;27;20206;-46
2023/10/22 04:13:04;;;;;;;1.50;1.13;;;;;;;;;;5125428;27;20231;-44
2023/10/22 04:15:37;;;;;;;1.13;1.10;;;;;;;;;;5129093;27;20226;-42
2023/10/22 04:18:04;;;;;;;0.93;0.93;;;;;;;;;;5128269;27;20293;-47
2023/10/22 04:20:33;;;;;;;1.80;1.10;;;;;;;;;;5126789;27;20693;-43
2023/10/22 04:23:00;;;;;;;1.00;1.00;;;;;;;;;;5129778;27;20203;-44
2023/10/22 04:25:28;;;;;;;1.73;1.53;;;;;;;;;;5124323;27;20200;-44
2023/10/22 04:27:55;;;;;;;1.40;1.20;;;;;;;;;;5124161;27;20218;-46
2023/10/22 04:30:22;;;;;;;1.03;0.93;;;;;;;;;;5128640;27;20234;-46
2023/10/22 04:32:51;;;;;;;3.27;0.90;;;;;;;;;;5123201;27;20283;-44
2023/10/22 04:35:18;;;;;;;1.00;1.00;;;;;;;;;;5120560;27;20227;-47
2023/10/22 04:37:45;;;;;;;1.10;1.10;;;;;;;;;;5128612;27;20210;-44
2023/10/22 04:40:13;;;;;;;1.27;1.17;;;;;;;;;;5120141;27;20816;-43
2023/10/22 04:42:40;;;;;;;1.20;1.10;;;;;;;;;;5124641;27;20204;-42
2023/10/22 04:45:08;;;;;;;1.17;1.10;;;;;;;;;;5129188;27;20464;-43
2023/10/22 04:47:35;;;;;;;1.13;1.07;;;;;;;;;;5130969;27;20297;-42
2023/10/22 04:50:03;;;;;;;0.93;0.93;;;;;;;;;;5124452;27;20231;-40
2023/10/22 04:52:32;;;;;;;0.80;0.80;;;;;;;;;;5127626;27;20514;-46
2023/10/22 04:55:00;;;;;;;1.70;1.17;;;;;;;;;;5127264;27;20223;-45
2023/10/22 04:57:27;;;;;;;0.80;0.80;;;;;;;;;;5123956;27;20214;-39
2023/10/22 04:59:54;;;;;;;1.10;1.10;;;;;;;;;;5123620;27;20696;-43
2023/10/22 05:02:21;;;;;;;1.20;1.10;;;;;;;;;;5126936;27;20203;-43
2023/10/22 05:04:49;;;;;;;1.50;1.23;;;;;;;;;;5123775;27;21467;-44
2023/10/22 05:07:17;;;;;;;2.30;1.20;;;;;;;;;;5130639;27;20207;-44
2023/10/22 05:09:44;;;;;;;2.30;1.20;;;;;;;;;;5128527;27;20230;-43
2023/10/22 05:12:11;;;;;;;2.00;0.90;;;;;;;;;;5120719;27;20203;-45
2023/10/22 05:14:38;;;;;;;0.90;0.90;;;;;;;;;;5134693;27;20618;-44
2023/10/22 05:17:06;;;;;;;1.10;1.00;;;;;;;;;;5139377;27;20223;-46
2023/10/22 05:19:33;;;;;;;1.10;1.00;;;;;;;;;;5132585;27;20229;-42
2023/10/22 05:22:00;;;;;;;1.07;0.80;;;;;;;;;;5130853;27;20267;-38
2023/10/22 05:24:30;;;;;;;2.67;1.20;;;;;;;;;;5136395;27;20234;-42
2023/10/22 05:26:57;;;;;;;1.47;1.10;;;;;;;;;;5123031;27;20261;-40
2023/10/22 05:29:24;;;;;;;0.90;0.90;;;;;;;;;;5132970;27;20227;-41
2023/10/22 05:31:52;;;;;;;1.20;0.90;;;;;;;;;;5133922;27;20279;-47
2023/10/22 05:34:19;;;;;;;0.90;0.90;;;;;;;;;;5128625;27;20195;-43
2023/10/22 05:36:46;;;;;;;1.10;1.00;;;;;;;;;;5134932;27;20396;-44
2023/10/22 05:39:13;;;;;;;3.53;1.10;;;;;;;;;;5132655;27;20219;-39
2023/10/22 05:41:42;;;;;;;1.17;1.03;;;;;;;;;;5129423;27;20205;-44
2023/10/22 05:44:09;;;;;;;1.00;1.00;;;;;;;;;;5134935;27;20195;-39
2023/10/22 05:46:36;;;;;;;1.77;1.20;;;;;;;;;;5130415;27;20630;-43
2023/10/22 05:49:04;;;;;;;1.27;1.17;;;;;;;;;;5127497;27;20219;-46
2023/10/22 05:51:32;;;;;;;1.17;1.13;;;;;;;;;;5129109;27;20214;-41
2023/10/22 05:53:59;;;;;;;0.90;0.90;;;;;;;;;;5134107;27;20224;-44
2023/10/22 05:56:28;;;;;;;3.10;1.10;;;;;;;;;;5136007;27;20211;-41
2023/10/22 05:58:57;;;;;;;1.20;1.10;;;;;;;;;;5133407;27;20227;-42
2023/10/22 06:01:24;;;;;;;1.10;1.00;;;;;;;;;;5152733;27;20211;-40
2023/10/22 06:03:51;;;;;;;0.90;0.90;;;;;;;;;;5121794;27;20696;-44
2023/10/22 06:06:19;;;;;;;0.97;0.93;;;;;;;;;;5126138;27;20202;-42
2023/10/22 06:08:46;;;;;;;1.20;1.03;;;;;;;;;;5130438;27;20241;-40
2023/10/22 06:11:14;;;;;;;1.00;1.00;;;;;;;;;;5119689;27;20206;-45
2023/10/22 06:13:41;;;;;;;1.07;1.07;;;;;;;;;;5142938;27;20203;-42
2023/10/22 06:16:10;;;;;;;1.10;1.10;;;;;;;;;;5142657;27;20214;-41
2023/10/22 06:18:37;;;;;;;1.40;1.30;;;;;;;;;;5128874;27;20220;-44
2023/10/22 06:21:10;;;;;;;1.00;1.00;;;;;;;;;;5122954;27;20207;-40
2023/10/22 06:23:37;;;;;;;1.00;1.00;;;;;;;;;;5142183;27;20195;-44
2023/10/22 06:26:05;;;;;;;0.97;0.97;;;;;;;;;;5123667;27;20225;-46
2023/10/22 06:28:32;;;;;;;0.90;0.90;;;;;;;;;;5131793;27;20704;-41
2023/10/22 06:31:05;;;;;;;1.87;1.17;;;;;;;;;;5145019;27;20207;-39
2023/10/22 06:33:34;;;;;;;0.70;0.70;;;;;;;;;;5130105;27;20701;-46
2023/10/22 06:36:11;;;;;;;0.80;0.80;;;;;;;;;;5136694;27;20223;-41
2023/10/22 06:38:38;;;;;;;1.87;1.20;;;;;;;;;;5137777;27;20349;-43
2023/10/22 06:41:06;;;;;;;1.10;1.00;;;;;;;;;;5127144;27;20214;-39
2023/10/22 06:43:33;;;;;;;1.83;1.20;;;;;;;;;;5138586;27;20271;-45
2023/10/22 06:46:00;;;;;;;2.73;1.17;;;;;;;;;;5134091;27;20199;-45
2023/10/22 06:48:29;;;;;;;1.03;1.00;;;;;;;;;;5128613;27;20204;-41
2023/10/22 06:50:58;;;;;;;2.43;0.97;;;;;;;;;;5128043;27;20208;-45
2023/10/22 06:53:27;;;;;;;2.20;1.10;;;;;;;;;;5131545;27;20210;-44
2023/10/22 06:55:54;;;;;;;2.53;0.90;;;;;;;;;;5121993;27;20500;-46
2023/10/22 06:58:21;;;;;;;1.20;1.00;;;;;;;;;;5128919;27;20203;-43
2023/10/22 07:00:48;;;;;;;3.87;1.10;;;;;;;;;;5131442;27;20295;-44
2023/10/22 07:03:15;;;;;;;1.33;1.23;;;;;;;;;;5129387;27;20237;-44
2023/10/22 07:05:42;;;;;;;1.30;1.20;;;;;;;;;;5126811;27;20203;-41
2023/10/22 07:08:11;;;;;;;4.63;1.20;;;;;;;;;;5132733;27;20203;-44
2023/10/22 07:10:38;;;;;;;0.77;0.77;;;;;;;;;;5123484;27;20316;-41
2023/10/22 07:13:05;;;;;;;2.10;1.10;;;;;;;;;;5127771;27;20203;-44
2023/10/22 07:15:32;;;;;;;1.30;1.20;;;;;;;;;;5135829;27;20234;-42
2023/10/22 07:18:00;;;;;;;0.90;0.90;;;;;;;;;;5134293;27;20206;-44
2023/10/22 07:20:27;;;;;;;1.13;1.00;;;;;;;;;;5125122;27;20216;-42
2023/10/22 07:22:54;;;;;;;0.97;0.97;;;;;;;;;;5133680;27;20207;-46
2023/10/22 07:25:22;;;;;;;1.37;1.27;;;;;;;;;;5136450;27;20322;-42
2023/10/22 07:27:49;;;;;;;1.07;1.07;;;;;;;;;;5126886;27;20205;-43
2023/10/22 07:30:17;;;;;;;1.77;1.10;;;;;;;;;;5133385;27;20282;-43
2023/10/22 07:32:44;;;;;;;1.77;1.43;;;;;;;;;;5133227;27;20214;-41
2023/10/22 07:35:14;;;;;;;1.40;1.30;;;;;;;;;;5125234;27;20656;-41
2023/10/22 07:37:44;;;;;;;2.70;1.43;;;;;;;;;;5136185;27;20213;-38
2023/10/22 07:40:12;;;;;;;1.47;1.33;;;;;;;;;;5125244;27;20534;-41
2023/10/22 07:42:41;;;;;;;4.03;1.30;;;;;;;;;;5130449;27;20209;-39
2023/10/22 07:45:09;;;;;;;1.77;1.40;;;;;;;;;;5135311;27;20195;-43
2023/10/22 07:47:36;;;;;;;1.57;1.20;;;;;;;;;;5134892;27;20191;-44
2023/10/22 07:50:03;;;;;;;1.40;1.30;;;;;;;;;;5125175;27;20578;-40
2023/10/22 07:52:31;;;;;;;1.33;1.23;;;;;;;;;;5127143;27;20235;-46
2023/10/22 07:54:58;;;;;;;1.30;1.20;;;;;;;;;;5131500;27;20211;-40
2023/10/22 07:57:27;;;;;;;1.40;1.30;;;;;;;;;;5124085;27;20212;-45
2023/10/22 07:59:55;;;;;;;1.83;1.47;;;;;;;;;;5130952;27;20242;-40
2023/10/22 08:02:22;;;;;;;4.57;1.60;;;;;;;;;;5135522;27;20208;-39
2023/10/22 08:04:49;;;;;;;2.40;1.40;;;;;;;;;;5130468;27;20301;-42
2023/10/22 08:07:18;;;;;;;1.40;1.30;;;;;;;;;;5128667;27;20195;-44
2023/10/22 08:09:46;;;;;;;1.70;1.60;;;;;;;;;;5122610;27;20230;-44
2023/10/22 08:12:13;;;;;;;1.70;1.60;;;;;;;;;;5121139;27;20211;-43
2023/10/22 08:14:40;;;;;;;1.70;1.60;;;;;;;;;;5136542;27;20554;-44
2023/10/22 08:17:08;;;;;;;1.67;1.40;;;;;;;;;;5129583;27;20229;-42
2023/10/22 08:19:35;;;;;;;2.07;1.40;;;;;;;;;;5119510;27;20227;-42
2023/10/22 08:22:03;;;;;;;2.43;1.83;;;;;;;;;;5131870;27;20207;-46
2023/10/22 08:24:30;;;;;;;1.80;1.40;;;;;;;;;;5133356;27;20649;-43
2023/10/22 08:27:02;;;;;;;2.93;1.37;;;;;;;;;;5124328;27;20195;-40
2023/10/22 08:29:29;;;;;;;1.00;1.00;;;;;;;;;;5128676;27;20552;-40
2023/10/22 08:31:56;;;;;;;2.00;1.43;;;;;;;;;;5137968;27;20565;-45
2023/10/22 08:34:24;;;;;;;2.57;1.50;;;;;;;;;;5126547;27;20195;-41
2023/10/22 08:36:52;;;;;;;2.53;1.70;;;;;;;;;;5129728;27;20250;-44
2023/10/22 08:39:19;;;;;;;1.47;1.20;;;;;;;;;;5143472;27;20222;-42
2023/10/22 08:41:49;;;;;;;1.60;1.23;;;;;;;;;;5121020;27;20203;-45
2023/10/22 08:44:16;;;;;;;4.37;1.60;;;;;;;;;;5131797;27;20251;-37
2023/10/22 08:46:43;;;;;;;2.30;1.60;;;;;;;;;;5132778;27;20560;-43
2023/10/22 08:49:12;;;;;;;1.93;1.23;;;;;;;;;;5132097;27;20593;-41
2023/10/22 08:51:41;;;;;;;3.50;1.50;;;;;;;;;;5139075;27;20210;-41
2023/10/22 08:54:10;;;;;;;2.07;1.20;;;;;;;;;;5140865;27;20209;-42
2023/10/22 08:56:37;;;;;;;0.90;0.90;;;;;;;;;;5126396;27;20228;-41
2023/10/22 08:59:05;;;;;;;1.73;1.30;;;;;;;;;;5149432;27;20222;-41
2023/10/22 09:01:33;;;;;;;2.87;1.20;;;;;;;;;;5137705;27;20242;-44
2023/10/22 09:04:01;;;;;;;3.23;0.97;;;;;;;;;;5133029;27;20207;-39
2023/10/22 09:06:28;;;;;;;3.00;0.87;;;;;;;;;;5130076;27;20310;-41
2023/10/22 09:08:56;;;;;;;1.57;1.40;;;;;;;;;;5132287;27;20215;-43
2023/10/22 09:11:24;;;;;;;2.33;1.37;;;;;;;;;;5128749;27;20501;-45
2023/10/22 09:13:51;;;;;;;1.13;0.83;;;;;;;;;;5141925;27;20295;-40
2023/10/22 09:16:31;;;;;;;1.90;1.20;;;;;;;;;;5138229;27;20553;-38
2023/10/22 09:19:01;;;;;;;4.37;1.20;;;;;;;;;;5127049;27;20485;-42
2023/10/22 09:21:46;;;;;;;2.87;1.40;;;;;;;;;;5131970;27;20200;-40
2023/10/22 09:24:15;;;;;;;1.07;0.70;;;;;;;;;;5145411;27;20206;-44
2023/10/22 09:26:43;;;;;;;2.53;0.77;;;;;;;;;;5129544;27;20217;-39
2023/10/22 09:29:10;;;;;;;1.30;0.60;;;;;;;;;;5134662;27;20223;-43
2023/10/22 09:31:37;;;;;;;3.40;1.00;;;;;;;;;;5134892;27;20213;-40
2023/10/22 09:34:04;;;;;;;4.20;1.00;;;;;;;;;;5128555;27;20205;-42
2023/10/22 09:36:31;;;;;;;1.67;0.83;;;;;;;;;;5130748;27;20215;-43
2023/10/22 09:38:59;;;;;;;1.83;0.80;;;;;;;;;;5127115;27;20235;-41
2023/10/22 09:41:29;;;;;;;4.47;1.00;;;;;;;;;;5126497;27;20276;-41
2023/10/22 09:43:57;;;;;;;2.50;0.53;;;;;;;;;;5133434;27;20203;-41
2023/10/22 09:46:26;;;;;;;3.60;1.00;;;;;;;;;;5132810;27;20206;-41
2023/10/22 09:48:55;;;;;;;2.40;1.00;;;;;;;;;;5136632;27;20302;-45
2023/10/22 09:51:22;;;;;;;7.17;1.07;;;;;;;;;;5123593;27;20199;-42
2023/10/22 09:53:53;;;;;;;4.77;0.90;;;;;;;;;;5137232;27;20291;-42
2023/10/22 09:56:21;;;;;;;2.87;0.80;;;;;;;;;;5126647;27;20196;-42
2023/10/22 09:58:50;;;;;;;5.17;0.77;;;;;;;;;;5134194;27;20227;-45
2023/10/22 10:01:18;;;;;;;2.93;0.60;;;;;;;;;;5128078;27;20729;-41
2023/10/22 10:03:45;;;;;;;4.23;0.80;;;;;;;;;;5130393;27;20289;-41
2023/10/22 10:06:14;;;;;;;4.57;0.73;;;;;;;;;;5123479;27;20209;-42
2023/10/22 10:08:42;;;;;;;3.47;0.80;;;;;;;;;;5130872;27;20251;-43
2023/10/22 10:11:10;;;;;;;2.80;0.60;;;;;;;;;;5121387;27;20204;-41
2023/10/22 10:13:37;;;;;;;2.43;1.20;;;;;;;;;;5135625;27;20195;-43
2023/10/22 10:16:06;;;;;;;3.47;0.90;;;;;;;;;;5135236;27;20250;-43
2023/10/22 10:18:52;;;;;;;4.23;0.90;;;;;;;;;;5136785;27;20460;-46
2023/10/22 10:21:39;;;;;;;2.07;0.50;;;;;;;;;;5124512;27;20210;-41
2023/10/22 10:24:25;;;;;;;1.33;0.50;;;;;;;;;;5144962;27;20468;-42
2023/10/22 10:26:55;;;;;;;2.13;0.80;;;;;;;;;;5122577;27;20289;-41
2023/10/22 10:29:22;;;;;;;2.57;0.63;;;;;;;;;;5148483;27;20267;-43
2023/10/22 10:31:52;;;;;;;2.17;0.70;;;;;;;;;;5138015;27;20965;-39
2023/10/22 10:34:33;;;;;;;1.80;0.73;;;;;;;;;;5132404;27;20207;-38
2023/10/22 10:37:10;;;;;;;2.97;0.80;;;;;;;;;;5127357;27;20207;-43
2023/10/22 10:39:38;;;;;;;2.77;0.77;;;;;;;;;;5134686;27;20241;-39
2023/10/22 10:42:05;;;;;;;3.07;0.50;;;;;;;;;;5115276;27;20201;-44
2023/10/22 10:44:33;;;;;;;1.37;0.50;;;;;;;;;;5132240;27;20274;-42
2023/10/22 10:47:19;;;;;;;1.87;0.80;;;;;;;;;;5134935;27;20191;-44
2023/10/22 10:49:55;;;;;;;0.90;0.47;;;;;;;;;;5131968;27;20290;-41
2023/10/22 10:52:22;;;;;;;2.50;0.60;;;;;;;;;;5128971;27;20203;-42
2023/10/22 10:54:59;;;;;;;2.73;0.93;;;;;;;;;;5141503;27;20567;-46
2023/10/22 10:57:36;;;;;;;1.17;0.60;;;;;;;;;;5125346;27;20211;-41
2023/10/22 11:00:10;;;;;;;3.83;0.60;;;;;;;;;;5123903;27;20329;-40
2023/10/22 11:02:41;;;;;;;2.63;0.53;;;;;;;;;;5128533;27;20206;-43
2023/10/22 11:05:10;;;;;;;2.03;0.60;;;;;;;;;;5126910;27;20195;-43
2023/10/22 11:07:37;;;;;;;2.33;0.50;;;;;;;;;;5124476;27;20206;-43
2023/10/22 11:10:08;;;;;;;1.57;0.60;;;;;;;;;;5128276;27;20228;-43
2023/10/22 11:12:36;;;;;;;1.53;0.60;;;;;;;;;;5127177;27;20203;-44
2023/10/22 11:15:03;;;;;;;1.73;0.50;;;;;;;;;;5133092;27;20214;-45
2023/10/22 11:17:30;;;;;;;2.73;1.10;;;;;;;;;;5133216;27;20227;-42
2023/10/22 11:19:57;;;;;;;0.57;0.50;;;;;;;;;;5130227;27;20211;-44
2023/10/22 11:22:26;;;;;;;1.30;0.60;;;;;;;;;;5128620;27;20199;-44
2023/10/22 11:24:55;;;;;;;4.17;0.80;;;;;;;;;;5131486;27;20271;-40
2023/10/22 11:27:23;;;;;;;3.37;0.57;;;;;;;;;;5130287;27;20199;-45
2023/10/22 11:29:50;;;;;;;1.60;0.80;;;;;;;;;;5135466;27;20227;-46
2023/10/22 11:32:18;;;;;;;1.70;0.60;;;;;;;;;;5133785;27;20208;-43
2023/10/22 11:34:49;;;;;;;2.73;0.70;;;;;;;;;;5125258;27;20210;-44
2023/10/22 11:37:16;;;;;;;0.60;0.60;;;;;;;;;;5135066;27;20228;-40
2023/10/22 11:39:44;;;;;;;1.93;0.60;;;;;;;;;;5135552;27;20234;-40
2023/10/22 11:42:11;;;;;;;2.10;0.70;;;;;;;;;;5123635;27;20307;-44
2023/10/22 11:44:39;;;;;;;3.53;0.90;;;;;;;;;;5131417;27;20200;-38
2023/10/22 11:47:21;;;;;;;3.27;0.97;;;;;;;;;;5129958;27;20252;-43
2023/10/22 11:49:48;;;;;;;0.70;0.60;;;;;;;;;;5122826;27;20235;-43
2023/10/22 11:52:17;;;;;;;1.17;0.50;;;;;;;;;;5130992;27;20206;-40
2023/10/22 11:54:46;;;;;;;2.00;0.53;;;;;;;;;;5137175;27;20203;-44
2023/10/22 11:57:13;;;;;;;2.80;0.60;;;;;;;;;;5119437;27;20715;-46
2023/10/22 11:59:40;;;;;;;1.27;0.70;;;;;;;;;;5131998;27;20268;-44
2023/10/22 12:02:08;;;;;;;3.17;0.50;;;;;;;;;;5140162;27;20202;-45
2023/10/22 12:04:35;;;;;;;1.07;0.67;;;;;;;;;;5123704;27;20196;-44
2023/10/22 12:07:02;;;;;;;3.30;0.60;;;;;;;;;;5132376;27;20204;-44
2023/10/22 12:09:29;;;;;;;1.67;0.57;;;;;;;;;;5131792;27;20215;-42
2023/10/22 12:11:58;;;;;;;5.63;0.90;;;;;;;;;;5118948;27;20828;-47
2023/10/22 12:14:25;;;;;;;5.20;0.93;;;;;;;;;;5127831;27;20203;-44
2023/10/22 12:16:52;;;;;;;1.97;0.60;;;;;;;;;;5131773;27;20218;-43
2023/10/22 12:19:19;;;;;;;3.80;0.60;;;;;;;;;;5121622;27;20228;-40
2023/10/22 12:21:46;;;;;;;3.77;0.90;;;;;;;;;;5119920;27;20273;-40
2023/10/22 12:24:14;;;;;;;3.00;0.90;;;;;;;;;;5138291;27;20212;-42
2023/10/22 12:26:41;;;;;;;1.80;0.60;;;;;;;;;;5122496;27;20200;-43
2023/10/22 12:29:09;;;;;;;1.10;0.60;;;;;;;;;;5127262;27;20242;-44
2023/10/22 12:31:37;;;;;;;1.10;0.60;;;;;;;;;;5140136;27;20206;-44
2023/10/22 12:34:05;;;;;;;1.83;0.50;;;;;;;;;;5120826;27;20215;-44
2023/10/22 12:36:32;;;;;;;3.63;0.60;;;;;;;;;;5124486;27;20230;-42
2023/10/22 12:38:59;;;;;;;2.00;0.80;;;;;;;;;;5127401;27;20241;-39
2023/10/22 12:41:26;;;;;;;4.53;0.90;;;;;;;;;;5120322;27;20218;-42
2023/10/22 12:43:53;;;;;;;3.33;0.70;;;;;;;;;;5126059;27;20211;-42
2023/10/22 12:46:22;;;;;;;1.50;0.70;;;;;;;;;;5119755;27;20206;-42
2023/10/22 12:48:49;;;;;;;7.37;1.00;;;;;;;;;;5124032;27;20222;-40
2023/10/22 12:51:16;;;;;;;3.20;1.13;;;;;;;;;;5123692;27;20542;-40
2023/10/22 12:53:43;;;;;;;1.73;0.70;;;;;;;;;;5120808;27;20211;-42
2023/10/22 12:56:11;;;;;;;3.13;1.00;;;;;;;;;;5111021;27;20203;-42
2023/10/22 12:58:37;;;;;;;2.37;0.70;;;;;;;;;;5134141;27;20229;-40
2023/10/22 13:01:06;;;;;;;1.50;0.50;;;;;;;;;;5134691;27;20637;-40
2023/10/22 13:03:35;;;;;;;2.00;0.60;;;;;;;;;;5125097;27;20207;-46
2023/10/22 13:06:02;;;;;;;1.23;0.50;;;;;;;;;;5127047;27;20205;-42
2023/10/22 13:08:30;;;;;;;3.00;0.90;;;;;;;;;;5127880;27;20219;-42
2023/10/22 13:10:57;;;;;;;2.13;1.30;;;;;;;;;;5125948;27;20229;-41
2023/10/22 13:13:25;;;;;;;1.00;0.70;;;;;;;;;;5141853;27;20227;-42
2023/10/22 13:15:52;;;;;;;2.77;0.80;;;;;;;;;;5133692;27;20290;-44
2023/10/22 13:18:19;;;;;;;2.87;0.53;;;;;;;;;;5127181;27;20310;-41
2023/10/22 13:20:48;;;;;;;2.80;0.70;;;;;;;;;;5126514;27;20263;-44
2023/10/22 13:23:15;;;;;;;8.10;0.77;;;;;;;;;;5130437;27;20272;-42
2023/10/22 13:25:43;;;;;;;2.47;0.60;;;;;;;;;;5127512;27;20231;-45
2023/10/22 13:28:10;;;;;;;2.87;0.80;;;;;;;;;;5136021;27;20560;-45
2023/10/22 13:30:40;;;;;;;2.27;1.07;;;;;;;;;;5128998;27;20281;-42
2023/10/22 13:33:07;;;;;;;4.17;0.97;;;;;;;;;;5134817;27;20210;-46
2023/10/22 13:35:34;;;;;;;3.03;0.60;;;;;;;;;;5132830;27;20203;-44
2023/10/22 13:38:03;;;;;;;3.10;0.77;;;;;;;;;;5145729;27;20223;-42
2023/10/22 13:40:30;;;;;;;2.63;0.80;;;;;;;;;;5137292;27;20231;-42
2023/10/22 13:42:57;;;;;;;2.37;0.80;;;;;;;;;;5128310;27;20208;-41
2023/10/22 13:45:24;;;;;;;2.43;0.80;;;;;;;;;;5130276;27;20199;-45
2023/10/22 13:47:52;;;;;;;1.20;0.67;;;;;;;;;;5142170;27;20196;-42
2023/10/22 13:50:19;;;;;;;1.43;0.50;;;;;;;;;;5140237;27;20220;-45
2023/10/22 13:52:47;;;;;;;1.77;0.87;;;;;;;;;;5144297;27;20199;-44
2023/10/22 13:55:15;;;;;;;2.87;0.90;;;;;;;;;;5123622;27;20231;-43
2023/10/22 13:57:42;;;;;;;1.40;0.80;;;;;;;;;;5129036;27;20292;-43
2023/10/22 14:00:10;;;;;;;1.80;0.60;;;;;;;;;;5134263;27;20654;-40
2023/10/22 14:02:38;;;;;;;2.33;0.60;;;;;;;;;;5132180;27;20287;-43
2023/10/22 14:05:05;;;;;;;2.23;0.77;;;;;;;;;;5128232;27;20212;-45
2023/10/22 14:07:32;;;;;;;4.17;0.90;;;;;;;;;;5123569;27;20205;-39
2023/10/22 14:10:00;;;;;;;3.33;0.80;;;;;;;;;;5131635;27;20227;-43
2023/10/22 14:12:28;;;;;;;5.43;1.13;;;;;;;;;;5122020;27;20196;-43
2023/10/22 14:14:55;;;;;;;2.07;0.57;;;;;;;;;;5134315;27;20669;-42
2023/10/22 14:17:22;;;;;;;2.07;0.50;;;;;;;;;;5134524;27;20202;-39
2023/10/22 14:19:53;;;;;;;1.40;0.60;;;;;;;;;;5128864;27;20232;-45
2023/10/22 14:22:20;;;;;;;1.70;0.70;;;;;;;;;;5138168;27;20206;-44
2023/10/22 14:24:47;;;;;;;3.13;0.87;;;;;;;;;;5140866;27;20566;-44
2023/10/22 14:27:14;;;;;;;0.93;0.70;;;;;;;;;;5123544;27;20200;-43
2023/10/22 14:29:43;;;;;;;3.27;0.70;;;;;;;;;;5133621;27;20539;-45
2023/10/22 14:32:10;;;;;;;2.07;0.50;;;;;;;;;;5134082;27;20206;-41
2023/10/22 14:34:37;;;;;;;1.90;0.50;;;;;;;;;;5127054;27;20723;-43
2023/10/22 14:37:04;;;;;;;1.43;0.70;;;;;;;;;;5128760;27;20215;-43
2023/10/22 14:39:33;;;;;;;2.40;0.97;;;;;;;;;;5148253;27;20239;-44
2023/10/22 14:42:00;;;;;;;2.63;1.40;;;;;;;;;;5124410;27;20204;-42
2023/10/22 14:44:27;;;;;;;0.40;0.40;;;;;;;;;;5137335;27;20286;-42
2023/10/22 14:46:56;;;;;;;2.27;0.90;;;;;;;;;;5139667;27;20195;-45
2023/10/22 14:49:23;;;;;;;1.93;0.70;;;;;;;;;;5135093;27;20219;-41